createdAt,value
2022-08-20T00:01:09.251Z,23.69
2022-08-20T00:06:19.556Z,23.61
2022-08-20T00:11:27.460Z,23.51
2022-08-20T00:16:38.030Z,23.31
2022-08-20T00:21:43.444Z,23.18
2022-08-20T00:26:52.409Z,23.09
2022-08-20T00:31:58.442Z,23.02
2022-08-20T00:37:04.312Z,22.93
2022-08-20T00:42:10.147Z,22.85
2022-08-20T00:47:15.705Z,22.83
2022-08-20T00:52:22.163Z,22.84
2022-08-20T00:57:44.587Z,22.80
2022-08-20T01:03:00.961Z,22.75
2022-08-20T01:08:07.644Z,22.70
2022-08-20T01:13:17.275Z,22.64
2022-08-20T01:18:28.195Z,22.60
2022-08-20T01:23:40.612Z,22.59
2022-08-20T01:28:48.779Z,22.58
2022-08-20T01:33:55.685Z,22.55
2022-08-20T01:39:03.830Z,22.50
2022-08-20T01:44:16.733Z,22.43
2022-08-20T01:49:26.489Z,22.38
2022-08-20T01:54:34.071Z,22.32
2022-08-20T01:59:39.527Z,22.25
2022-08-20T02:04:45.597Z,22.21
2022-08-20T02:09:51.722Z,22.15
2022-08-20T02:14:57.328Z,22.10
2022-08-20T02:20:08.981Z,22.05
2022-08-20T02:25:16.307Z,21.98
2022-08-20T02:30:27.969Z,21.95
2022-08-20T02:35:33.989Z,21.91
2022-08-20T02:40:40.395Z,21.85
2022-08-20T02:45:45.983Z,21.80
2022-08-20T02:50:54.879Z,21.73
2022-08-20T02:56:01.992Z,21.57
2022-08-20T03:01:12.419Z,21.46
2022-08-20T03:06:18.311Z,21.34
2022-08-20T03:11:23.886Z,21.29
2022-08-20T03:16:29.318Z,21.21
2022-08-20T03:21:35.283Z,21.23
2022-08-20T03:26:40.703Z,21.27
2022-08-20T03:31:46.466Z,21.28
2022-08-20T03:36:51.918Z,21.29
2022-08-20T03:41:57.376Z,21.32
2022-08-20T03:47:07.829Z,21.41
2022-08-20T03:52:13.479Z,21.47
2022-08-20T03:57:19.210Z,21.48
2022-08-20T04:02:25.224Z,21.53
2022-08-20T04:07:30.750Z,21.62
2022-08-20T04:12:40.814Z,21.77
2022-08-20T04:17:54.610Z,21.88
2022-08-20T04:23:00.314Z,21.98
2022-08-20T04:28:15.835Z,22.08
2022-08-20T04:33:33.304Z,22.19
2022-08-20T04:38:49.706Z,22.32
2022-08-20T04:43:58.083Z,22.44
2022-08-20T04:49:04.236Z,22.61
2022-08-20T04:54:10.051Z,22.89
2022-08-20T04:59:20.165Z,23.74
2022-08-20T05:04:27.654Z,24.56
2022-08-20T05:09:43.793Z,24.56
2022-08-20T05:14:50.163Z,24.17
2022-08-20T05:19:55.875Z,23.89
2022-08-20T05:25:01.956Z,23.65
2022-08-20T05:30:11.773Z,23.49
2022-08-20T05:35:19.433Z,23.40
2022-08-20T05:40:25.509Z,23.42
2022-08-20T05:45:31.293Z,23.47
2022-08-20T05:50:37.282Z,23.60
2022-08-20T05:55:43.736Z,23.68
2022-08-20T06:00:50.335Z,23.88
2022-08-20T06:05:55.985Z,24.12
2022-08-20T06:11:01.591Z,24.41
2022-08-20T06:16:07.347Z,24.75
2022-08-20T06:21:13.758Z,25.78
2022-08-20T06:26:24.337Z,26.92
2022-08-20T06:31:39.740Z,26.54
2022-08-20T06:36:46.726Z,26.41
2022-08-20T06:41:53.095Z,26.60
2022-08-20T06:47:04.356Z,26.69
2022-08-20T06:52:10.237Z,26.80
2022-08-20T06:57:17.342Z,26.64
2022-08-20T07:02:30.078Z,26.41
2022-08-20T07:07:44.629Z,26.34
2022-08-20T07:12:51.423Z,26.24
2022-08-20T07:18:01.350Z,26.36
2022-08-20T07:23:08.404Z,26.59
2022-08-20T07:28:17.175Z,26.79
2022-08-20T07:33:23.051Z,26.91
2022-08-20T07:38:31.980Z,27.19
2022-08-20T07:43:39.534Z,27.44
2022-08-20T07:48:47.154Z,29.20
2022-08-20T07:53:53.210Z,30.51
2022-08-20T07:59:01.534Z,30.74
2022-08-20T08:04:07.274Z,31.97
2022-08-20T08:09:14.956Z,33.42
2022-08-20T08:14:26.698Z,34.82
2022-08-20T08:19:50.421Z,36.30
2022-08-20T08:25:00.013Z,37.21
2022-08-20T08:30:07.353Z,36.15
2022-08-20T08:35:38.255Z,36.33
2022-08-20T08:40:59.822Z,36.68
2022-08-20T08:47:19.134Z,36.06
2022-08-20T08:53:24.289Z,33.96
2022-08-20T08:58:37.607Z,32.87
2022-08-20T09:03:46.048Z,32.30
2022-08-20T09:08:55.827Z,31.85
2022-08-20T09:14:01.697Z,31.31
2022-08-20T09:19:09.312Z,30.75
2022-08-20T09:24:15.045Z,30.94
2022-08-20T09:29:20.658Z,31.37
2022-08-20T09:34:26.603Z,32.44
2022-08-20T09:39:32.342Z,33.75
2022-08-20T09:44:38.184Z,35.82
2022-08-20T09:49:45.088Z,37.03
2022-08-20T09:54:52.099Z,37.06
2022-08-20T10:00:02.008Z,37.55
2022-08-20T10:05:18.277Z,37.99
2022-08-20T10:10:25.196Z,38.96
2022-08-20T10:15:31.192Z,39.37
2022-08-20T10:20:37.017Z,39.54
2022-08-20T10:25:43.383Z,39.60
2022-08-20T10:30:49.029Z,39.50
2022-08-20T10:35:59.676Z,39.34
2022-08-20T10:41:05.955Z,39.11
2022-08-20T10:46:11.656Z,39.43
2022-08-20T10:51:17.441Z,39.60
2022-08-20T10:56:23.999Z,38.75
2022-08-20T11:01:32.674Z,37.66
2022-08-20T11:06:40.964Z,37.23
2022-08-20T11:11:50.392Z,37.02
2022-08-20T11:16:56.415Z,37.08
2022-08-20T11:22:03.623Z,36.86
2022-08-20T11:27:10.504Z,36.73
2022-08-20T11:32:16.147Z,36.57
2022-08-20T11:37:24.484Z,36.58
2022-08-20T11:42:29.964Z,36.91
2022-08-20T11:47:37.324Z,36.90
2022-08-20T11:52:43.206Z,36.67
2022-08-20T11:57:49.985Z,36.09
2022-08-20T12:02:55.901Z,35.57
2022-08-20T12:08:03.358Z,35.20
2022-08-20T12:13:09.022Z,35.17
2022-08-20T12:18:14.868Z,35.30
2022-08-20T12:23:20.860Z,35.18
2022-08-20T12:28:26.588Z,35.26
2022-08-20T12:33:32.232Z,35.30
2022-08-20T12:38:37.790Z,35.16
2022-08-20T12:43:43.961Z,34.96
2022-08-20T12:48:49.708Z,34.99
2022-08-20T12:53:55.190Z,34.73
2022-08-20T12:59:00.959Z,34.57
2022-08-20T13:04:06.602Z,34.48
2022-08-20T13:09:12.896Z,34.50
2022-08-20T13:14:18.526Z,34.56
2022-08-20T13:19:24.311Z,34.45
2022-08-20T13:24:30.101Z,34.28
2022-08-20T13:29:36.038Z,33.92
2022-08-20T13:34:42.202Z,33.66
2022-08-20T13:39:47.902Z,33.53
2022-08-20T13:44:53.852Z,33.26
2022-08-20T13:50:04.810Z,33.16
2022-08-20T13:55:14.912Z,33.22
2022-08-20T14:00:31.625Z,33.16
2022-08-20T14:05:38.810Z,32.98
2022-08-20T14:10:47.179Z,33.07
2022-08-20T14:15:57.209Z,33.10
2022-08-20T14:21:03.083Z,32.88
2022-08-20T14:26:08.589Z,32.65
2022-08-20T14:31:14.015Z,32.34
2022-08-20T14:36:19.568Z,32.20
2022-08-20T14:41:25.254Z,32.11
2022-08-20T14:46:30.643Z,31.98
2022-08-20T14:51:38.733Z,31.91
2022-08-20T14:56:44.355Z,31.79
2022-08-20T15:01:50.199Z,31.77
2022-08-20T15:06:55.696Z,31.87
2022-08-20T15:12:05.586Z,31.72
2022-08-20T15:17:17.496Z,31.61
2022-08-20T15:22:23.998Z,31.43
2022-08-20T15:27:29.722Z,31.27
2022-08-20T15:32:35.442Z,31.00
2022-08-20T15:37:43.432Z,30.75
2022-08-20T15:42:49.337Z,30.53
2022-08-20T15:48:08.741Z,30.30
2022-08-20T15:53:24.742Z,30.10
2022-08-20T15:58:39.577Z,29.92
2022-08-20T16:04:11.590Z,29.78
2022-08-20T16:09:38.032Z,29.55
2022-08-20T16:14:47.514Z,29.38
2022-08-20T16:19:59.938Z,29.24
2022-08-20T16:25:06.376Z,29.14
2022-08-20T16:30:21.753Z,29.00
2022-08-20T16:35:32.065Z,28.87
2022-08-20T16:40:49.651Z,28.74
2022-08-20T16:46:03.143Z,28.59
2022-08-20T16:51:16.907Z,28.46
2022-08-20T16:56:35.377Z,28.30
2022-08-20T17:01:40.947Z,28.11
2022-08-20T17:06:49.351Z,27.93
2022-08-20T17:12:15.285Z,27.73
2022-08-20T17:17:24.850Z,27.55
2022-08-20T17:22:39.424Z,27.38
2022-08-20T17:27:46.202Z,27.22
2022-08-20T17:32:59.264Z,27.08
2022-08-20T17:38:06.227Z,26.92
2022-08-20T17:43:25.983Z,26.76
2022-08-20T17:48:41.578Z,26.59
2022-08-20T17:53:52.845Z,26.42
2022-08-20T17:59:05.887Z,26.19
2022-08-20T18:04:12.114Z,25.97
2022-08-20T18:09:22.722Z,25.81
2022-08-20T18:14:39.657Z,25.64
2022-08-20T18:20:08.765Z,25.44
2022-08-20T18:25:26.695Z,25.26
2022-08-20T18:30:33.470Z,25.16
2022-08-20T18:35:45.629Z,25.06
2022-08-20T18:40:55.248Z,24.98
2022-08-20T18:46:13.433Z,24.88
2022-08-20T18:51:24.576Z,24.79
2022-08-20T18:56:38.555Z,24.69
2022-08-20T19:01:46.596Z,24.61
2022-08-20T19:06:57.623Z,24.53
2022-08-20T19:12:20.730Z,24.45
2022-08-20T19:17:40.379Z,24.33
2022-08-20T19:22:48.198Z,24.24
2022-08-20T19:27:55.779Z,24.15
2022-08-20T19:33:01.873Z,24.02
2022-08-20T19:38:15.127Z,23.87
2022-08-20T19:43:23.509Z,23.78
2022-08-20T19:48:43.776Z,23.67
2022-08-20T19:53:50.998Z,23.57
2022-08-20T19:59:06.566Z,23.49
2022-08-20T20:04:18.100Z,23.39
2022-08-20T20:09:27.365Z,23.37
2022-08-20T20:14:37.376Z,23.35
2022-08-20T20:19:50.931Z,23.29
2022-08-20T20:25:19.910Z,23.26
2022-08-20T20:30:28.815Z,23.21
2022-08-20T20:35:35.731Z,23.13
2022-08-20T20:40:49.638Z,23.02
2022-08-20T20:46:04.134Z,22.92
2022-08-20T20:51:18.290Z,22.82
2022-08-20T20:56:33.984Z,22.74
2022-08-20T21:04:59.664Z,22.61
2022-08-20T21:10:13.743Z,22.48
2022-08-20T21:15:19.686Z,22.43
2022-08-20T21:20:26.142Z,22.34
2022-08-20T21:25:34.103Z,22.25
2022-08-20T21:30:39.621Z,22.21
2022-08-20T21:35:45.203Z,22.19
2022-08-20T21:40:51.013Z,22.15
2022-08-20T21:45:56.784Z,22.13
2022-08-20T21:51:02.176Z,22.03
2022-08-20T21:56:08.400Z,22.02
2022-08-20T22:01:14.690Z,22.02
2022-08-20T22:06:21.126Z,22.08
2022-08-20T22:11:26.645Z,22.14
2022-08-20T22:16:32.508Z,22.17
2022-08-20T22:21:39.628Z,22.15
2022-08-20T22:26:45.214Z,22.13
2022-08-20T22:31:50.838Z,22.14
2022-08-20T22:36:59.482Z,22.18
2022-08-20T22:42:05.381Z,22.21
2022-08-20T22:47:12.888Z,22.20
2022-08-20T22:52:18.429Z,22.19
2022-08-20T22:57:23.805Z,22.15
2022-08-20T23:02:29.468Z,22.11
2022-08-20T23:07:35.132Z,22.07
2022-08-20T23:12:40.624Z,22.07
2022-08-20T23:17:46.955Z,22.04
2022-08-20T23:22:52.289Z,21.97
2022-08-20T23:28:04.293Z,21.89
2022-08-20T23:33:09.963Z,21.81
2022-08-20T23:38:16.011Z,21.72
2022-08-20T23:43:21.517Z,21.64
2022-08-20T23:48:27.067Z,21.54
2022-08-20T23:53:32.584Z,21.45
2022-08-20T23:58:38.445Z,21.38
